sensor_id;sensor_type;location;lat;lon;timestamp;pressure;altitude;pressure_sealevel;temperature;humidity
58769;BME280;44536;47.474;19.056;2022-08-24T00:02:10;100357.69;;;19.32;100.00
58769;BME280;44536;47.474;19.056;2022-08-24T00:05:13;100354.06;;;19.16;100.00
58769;BME280;44536;47.474;19.056;2022-08-24T00:08:16;100353.50;;;19.29;100.00
58769;BME280;44536;47.474;19.056;2022-08-24T00:11:20;100359.72;;;19.30;100.00
58769;BME280;44536;47.474;19.056;2022-08-24T00:14:23;100347.41;;;19.35;100.00
58769;BME280;44536;47.474;19.056;2022-08-24T00:17:25;100346.78;;;19.25;100.00
58769;BME280;44536;47.474;19.056;2022-08-24T00:20:28;100346.31;;;19.22;100.00
58769;BME280;44536;47.474;19.056;2022-08-24T00:23:30;100338.09;;;19.23;100.00
58769;BME280;44536;47.474;19.056;2022-08-24T00:26:33;100347.88;;;19.08;100.00
58769;BME280;44536;47.474;19.056;2022-08-24T00:29:37;100343.50;;;18.99;100.00
58769;BME280;44536;47.474;19.056;2022-08-24T00:32:39;100349.72;;;18.91;100.00
58769;BME280;44536;47.474;19.056;2022-08-24T00:35:42;100338.47;;;19.04;100.00
58769;BME280;44536;47.474;19.056;2022-08-24T00:38:44;100340.28;;;19.11;100.00
58769;BME280;44536;47.474;19.056;2022-08-24T00:41:48;100348.19;;;19.05;100.00
58769;BME280;44536;47.474;19.056;2022-08-24T00:44:51;100347.00;;;19.15;100.00
58769;BME280;44536;47.474;19.056;2022-08-24T00:47:57;100343.81;;;19.20;100.00
58769;BME280;44536;47.474;19.056;2022-08-24T00:51:23;100345.50;;;19.13;100.00
58769;BME280;44536;47.474;19.056;2022-08-24T00:54:28;100340.50;;;18.94;100.00
58769;BME280;44536;47.474;19.056;2022-08-24T00:57:35;100346.56;;;18.79;100.00
58769;BME280;44536;47.474;19.056;2022-08-24T01:00:43;100338.34;;;18.73;100.00
58769;BME280;44536;47.474;19.056;2022-08-24T01:03:49;100339.50;;;18.78;100.00
58769;BME280;44536;47.474;19.056;2022-08-24T01:06:58;100333.78;;;18.98;100.00
58769;BME280;44536;47.474;19.056;2022-08-24T01:10:04;100335.09;;;19.02;100.00
58769;BME280;44536;47.474;19.056;2022-08-24T01:13:09;100337.12;;;18.92;100.00
58769;BME280;44536;47.474;19.056;2022-08-24T01:16:14;100342.00;;;18.88;100.00
58769;BME280;44536;47.474;19.056;2022-08-24T01:19:44;100345.22;;;18.75;100.00
58769;BME280;44536;47.474;19.056;2022-08-24T01:23:04;100345.72;;;18.79;100.00
58769;BME280;44536;47.474;19.056;2022-08-24T01:26:18;100342.03;;;18.80;100.00
58769;BME280;44536;47.474;19.056;2022-08-24T01:29:25;100346.94;;;18.68;100.00
58769;BME280;44536;47.474;19.056;2022-08-24T01:32:29;100339.34;;;18.72;100.00
58769;BME280;44536;47.474;19.056;2022-08-24T01:35:32;100349.25;;;18.79;100.00
58769;BME280;44536;47.474;19.056;2022-08-24T01:38:36;100358.47;;;18.77;100.00
58769;BME280;44536;47.474;19.056;2022-08-24T01:41:38;100367.06;;;18.64;100.00
58769;BME280;44536;47.474;19.056;2022-08-24T01:44:43;100374.12;;;18.65;100.00
58769;BME280;44536;47.474;19.056;2022-08-24T01:47:46;100378.50;;;18.66;100.00
58769;BME280;44536;47.474;19.056;2022-08-24T01:50:49;100382.53;;;18.70;100.00
58769;BME280;44536;47.474;19.056;2022-08-24T01:53:51;100380.00;;;18.69;100.00
58769;BME280;44536;47.474;19.056;2022-08-24T01:56:55;100383.53;;;18.69;100.00
58769;BME280;44536;47.474;19.056;2022-08-24T01:59:57;100372.94;;;18.68;100.00
58769;BME280;44536;47.474;19.056;2022-08-24T02:03:00;100378.97;;;18.86;100.00
58769;BME280;44536;47.474;19.056;2022-08-24T02:06:04;100375.44;;;18.77;100.00
58769;BME280;44536;47.474;19.056;2022-08-24T02:09:07;100371.56;;;18.80;100.00
58769;BME280;44536;47.474;19.056;2022-08-24T02:12:10;100377.78;;;18.80;100.00
58769;BME280;44536;47.474;19.056;2022-08-24T02:15:12;100379.81;;;18.78;100.00
58769;BME280;44536;47.474;19.056;2022-08-24T02:18:15;100374.09;;;18.81;100.00
58769;BME280;44536;47.474;19.056;2022-08-24T02:21:18;100377.78;;;18.89;100.00
58769;BME280;44536;47.474;19.056;2022-08-24T02:24:21;100379.47;;;18.90;100.00
58769;BME280;44536;47.474;19.056;2022-08-24T02:27:24;100389.19;;;18.74;100.00
58769;BME280;44536;47.474;19.056;2022-08-24T02:30:27;100390.88;;;18.59;100.00
58769;BME280;44536;47.474;19.056;2022-08-24T02:33:31;100393.06;;;18.56;100.00
58769;BME280;44536;47.474;19.056;2022-08-24T02:36:33;100395.56;;;18.57;100.00
58769;BME280;44536;47.474;19.056;2022-08-24T02:39:36;100379.84;;;18.70;100.00
58769;BME280;44536;47.474;19.056;2022-08-24T02:42:39;100391.59;;;18.69;100.00
58769;BME280;44536;47.474;19.056;2022-08-24T02:45:44;100381.31;;;18.57;100.00
58769;BME280;44536;47.474;19.056;2022-08-24T02:48:52;100387.84;;;18.54;100.00
58769;BME280;44536;47.474;19.056;2022-08-24T02:52:13;100381.12;;;18.58;100.00
58769;BME280;44536;47.474;19.056;2022-08-24T02:55:17;100395.41;;;18.59;100.00
58769;BME280;44536;47.474;19.056;2022-08-24T02:58:21;100388.69;;;18.55;100.00
58769;BME280;44536;47.474;19.056;2022-08-24T03:01:25;100389.69;;;18.53;100.00
58769;BME280;44536;47.474;19.056;2022-08-24T03:04:31;100381.62;;;18.45;100.00
58769;BME280;44536;47.474;19.056;2022-08-24T03:07:34;100376.78;;;18.49;100.00
58769;BME280;44536;47.474;19.056;2022-08-24T03:10:37;100375.41;;;18.37;100.00
58769;BME280;44536;47.474;19.056;2022-08-24T03:13:41;100373.56;;;18.29;100.00
58769;BME280;44536;47.474;19.056;2022-08-24T03:16:44;100374.22;;;18.31;100.00
58769;BME280;44536;47.474;19.056;2022-08-24T03:19:46;100387.97;;;18.20;100.00
58769;BME280;44536;47.474;19.056;2022-08-24T03:22:49;100386.97;;;18.21;100.00
58769;BME280;44536;47.474;19.056;2022-08-24T03:25:52;100381.09;;;18.26;100.00
58769;BME280;44536;47.474;19.056;2022-08-24T03:28:55;100381.94;;;18.26;100.00
58769;BME280;44536;47.474;19.056;2022-08-24T03:32:00;100389.84;;;18.36;100.00
58769;BME280;44536;47.474;19.056;2022-08-24T03:35:03;100393.19;;;18.38;100.00
58769;BME280;44536;47.474;19.056;2022-08-24T03:38:06;100393.53;;;18.35;100.00
58769;BME280;44536;47.474;19.056;2022-08-24T03:41:09;100386.81;;;18.39;100.00
58769;BME280;44536;47.474;19.056;2022-08-24T03:44:13;100390.00;;;18.26;100.00
58769;BME280;44536;47.474;19.056;2022-08-24T03:47:16;100392.31;;;18.21;100.00
58769;BME280;44536;47.474;19.056;2022-08-24T03:50:20;100391.84;;;18.17;100.00
58769;BME280;44536;47.474;19.056;2022-08-24T03:53:23;100395.69;;;18.23;100.00
58769;BME280;44536;47.474;19.056;2022-08-24T03:56:26;100393.00;;;18.23;100.00
58769;BME280;44536;47.474;19.056;2022-08-24T03:59:29;100404.75;;;18.30;100.00
58769;BME280;44536;47.474;19.056;2022-08-24T04:02:32;100400.41;;;18.37;100.00
58769;BME280;44536;47.474;19.056;2022-08-24T04:05:36;100407.00;;;18.59;100.00
58769;BME280;44536;47.474;19.056;2022-08-24T04:08:41;100403.34;;;18.60;100.00
58769;BME280;44536;47.474;19.056;2022-08-24T04:11:44;100394.56;;;18.58;100.00
58769;BME280;44536;47.474;19.056;2022-08-24T04:14:50;100400.47;;;18.62;100.00
58769;BME280;44536;47.474;19.056;2022-08-24T04:17:53;100393.75;;;18.74;100.00
58769;BME280;44536;47.474;19.056;2022-08-24T04:20:55;100398.28;;;18.81;100.00
58769;BME280;44536;47.474;19.056;2022-08-24T04:24:00;100394.56;;;18.99;100.00
58769;BME280;44536;47.474;19.056;2022-08-24T04:27:04;100393.22;;;19.11;100.00
58769;BME280;44536;47.474;19.056;2022-08-24T04:30:08;100392.19;;;19.12;100.00
58769;BME280;44536;47.474;19.056;2022-08-24T04:33:19;100394.06;;;19.11;100.00
58769;BME280;44536;47.474;19.056;2022-08-24T04:36:22;100396.25;;;19.08;100.00
58769;BME280;44536;47.474;19.056;2022-08-24T04:39:24;100387.78;;;19.27;100.00
58769;BME280;44536;47.474;19.056;2022-08-24T04:42:29;100393.81;;;19.37;100.00
58769;BME280;44536;47.474;19.056;2022-08-24T04:45:39;100389.06;;;19.47;100.00
58769;BME280;44536;47.474;19.056;2022-08-24T04:48:44;100403.34;;;19.56;100.00
58769;BME280;44536;47.474;19.056;2022-08-24T04:51:46;100405.34;;;19.70;100.00
58769;BME280;44536;47.474;19.056;2022-08-24T04:54:49;100392.72;;;19.71;100.00
58769;BME280;44536;47.474;19.056;2022-08-24T04:57:52;100378.25;;;19.72;100.00
58769;BME280;44536;47.474;19.056;2022-08-24T05:00:54;100389.84;;;19.72;100.00
58769;BME280;44536;47.474;19.056;2022-08-24T05:03:57;100381.44;;;19.75;100.00
58769;BME280;44536;47.474;19.056;2022-08-24T05:06:59;100386.25;;;19.80;100.00
58769;BME280;44536;47.474;19.056;2022-08-24T05:10:04;100392.22;;;19.98;100.00
58769;BME280;44536;47.474;19.056;2022-08-24T05:13:10;100394.47;;;20.17;99.85
58769;BME280;44536;47.474;19.056;2022-08-24T05:16:16;100393.78;;;20.24;99.10
58769;BME280;44536;47.474;19.056;2022-08-24T05:19:22;100391.25;;;20.22;99.42
58769;BME280;44536;47.474;19.056;2022-08-24T05:22:24;100389.66;;;20.28;98.06
58769;BME280;44536;47.474;19.056;2022-08-24T05:25:27;100398.91;;;20.33;97.43
58769;BME280;44536;47.474;19.056;2022-08-24T05:28:30;100400.00;;;20.70;94.70
58769;BME280;44536;47.474;19.056;2022-08-24T05:31:32;100398.75;;;20.95;92.38
58769;BME280;44536;47.474;19.056;2022-08-24T05:34:37;100394.78;;;21.06;92.61
58769;BME280;44536;47.474;19.056;2022-08-24T05:37:40;100396.16;;;21.25;90.97
58769;BME280;44536;47.474;19.056;2022-08-24T05:40:45;100394.66;;;21.66;88.16
58769;BME280;44536;47.474;19.056;2022-08-24T05:43:47;100401.25;;;22.29;83.54
58769;BME280;44536;47.474;19.056;2022-08-24T05:46:50;100407.38;;;23.08;79.62
58769;BME280;44536;47.474;19.056;2022-08-24T05:49:52;100399.97;;;25.00;69.42
58769;BME280;44536;47.474;19.056;2022-08-24T05:52:55;100405.84;;;27.57;59.23
58769;BME280;44536;47.474;19.056;2022-08-24T05:55:58;100392.97;;;30.46;49.84
58769;BME280;44536;47.474;19.056;2022-08-24T05:59:03;100393.81;;;32.66;43.07
58769;BME280;44536;47.474;19.056;2022-08-24T06:02:05;100401.97;;;34.75;39.01
58769;BME280;44536;47.474;19.056;2022-08-24T06:05:09;100398.62;;;36.09;35.27
58769;BME280;44536;47.474;19.056;2022-08-24T06:08:12;100398.97;;;35.92;34.93
58769;BME280;44536;47.474;19.056;2022-08-24T06:11:26;100400.75;;;36.66;33.24
58769;BME280;44536;47.474;19.056;2022-08-24T06:14:32;100392.19;;;37.97;31.74
58769;BME280;44536;47.474;19.056;2022-08-24T06:17:36;100384.28;;;38.47;30.62
58769;BME280;44536;47.474;19.056;2022-08-24T06:20:41;100391.12;;;38.17;30.61
58769;BME280;44536;47.474;19.056;2022-08-24T06:23:48;100390.91;;;38.32;30.41
58769;BME280;44536;47.474;19.056;2022-08-24T06:26:52;100386.09;;;38.19;30.43
58769;BME280;44536;47.474;19.056;2022-08-24T06:30:14;100395.84;;;38.87;29.66
58769;BME280;44536;47.474;19.056;2022-08-24T06:33:18;100403.34;;;38.86;29.35
58769;BME280;44536;47.474;19.056;2022-08-24T06:36:23;100406.63;;;37.23;31.90
58769;BME280;44536;47.474;19.056;2022-08-24T06:39:26;100404.91;;;36.20;33.28
58769;BME280;44536;47.474;19.056;2022-08-24T06:42:29;100406.56;;;35.56;35.14
58769;BME280;44536;47.474;19.056;2022-08-24T06:45:33;100411.69;;;36.42;33.81
58769;BME280;44536;47.474;19.056;2022-08-24T06:48:35;100413.47;;;36.23;33.89
58769;BME280;44536;47.474;19.056;2022-08-24T06:51:38;100416.78;;;36.20;33.61
58769;BME280;44536;47.474;19.056;2022-08-24T06:54:41;100409.53;;;37.36;31.78
58769;BME280;44536;47.474;19.056;2022-08-24T06:57:44;100412.00;;;38.28;31.22
58769;BME280;44536;47.474;19.056;2022-08-24T07:00:53;100416.06;;;37.93;31.52
58769;BME280;44536;47.474;19.056;2022-08-24T07:03:57;100427.00;;;38.03;30.60
58769;BME280;44536;47.474;19.056;2022-08-24T07:07:01;100425.41;;;34.98;36.03
58769;BME280;44536;47.474;19.056;2022-08-24T07:10:05;100423.87;;;30.58;45.08
58769;BME280;44536;47.474;19.056;2022-08-24T07:13:10;100416.97;;;30.55;46.30
58769;BME280;44536;47.474;19.056;2022-08-24T07:16:17;100427.78;;;30.95;44.92
58769;BME280;44536;47.474;19.056;2022-08-24T07:19:21;100443.75;;;29.38;50.20
58769;BME280;44536;47.474;19.056;2022-08-24T07:22:23;100441.41;;;28.35;53.66
58769;BME280;44536;47.474;19.056;2022-08-24T07:25:25;100440.87;;;28.26;53.73
58769;BME280;44536;47.474;19.056;2022-08-24T07:28:28;100447.28;;;27.84;54.47
58769;BME280;44536;47.474;19.056;2022-08-24T07:31:37;100455.03;;;27.19;58.11
58769;BME280;44536;47.474;19.056;2022-08-24T07:34:40;100453.25;;;27.06;59.04
58769;BME280;44536;47.474;19.056;2022-08-24T07:37:43;100451.69;;;26.92;58.97
58769;BME280;44536;47.474;19.056;2022-08-24T07:40:46;100457.84;;;27.55;56.81
58769;BME280;44536;47.474;19.056;2022-08-24T07:44:10;100458.09;;;27.72;56.80
58769;BME280;44536;47.474;19.056;2022-08-24T07:47:13;100455.22;;;28.04;55.45
58769;BME280;44536;47.474;19.056;2022-08-24T07:50:36;100459.31;;;27.76;56.68
58769;BME280;44536;47.474;19.056;2022-08-24T07:53:39;100459.56;;;27.50;57.91
58769;BME280;44536;47.474;19.056;2022-08-24T07:56:58;100455.84;;;27.87;55.78
58769;BME280;44536;47.474;19.056;2022-08-24T08:00:03;100456.81;;;27.75;54.72
58769;BME280;44536;47.474;19.056;2022-08-24T08:03:15;100462.03;;;27.76;55.98
58769;BME280;44536;47.474;19.056;2022-08-24T08:06:18;100462.34;;;28.05;56.44
58769;BME280;44536;47.474;19.056;2022-08-24T08:09:21;100463.06;;;28.60;54.38
58769;BME280;44536;47.474;19.056;2022-08-24T08:12:23;100471.25;;;28.60;52.96
58769;BME280;44536;47.474;19.056;2022-08-24T08:15:25;100462.25;;;28.29;53.60
58769;BME280;44536;47.474;19.056;2022-08-24T08:18:29;100467.03;;;27.79;55.83
58769;BME280;44536;47.474;19.056;2022-08-24T08:21:32;100457.59;;;28.12;55.12
58769;BME280;44536;47.474;19.056;2022-08-24T08:24:53;100459.88;;;28.15;55.22
58769;BME280;44536;47.474;19.056;2022-08-24T08:27:55;100470.03;;;27.53;56.67
58769;BME280;44536;47.474;19.056;2022-08-24T08:31:14;100464.66;;;27.64;56.97
58769;BME280;44536;47.474;19.056;2022-08-24T08:34:18;100458.53;;;28.24;55.31
58769;BME280;44536;47.474;19.056;2022-08-24T08:37:21;100460.34;;;28.90;53.39
58769;BME280;44536;47.474;19.056;2022-08-24T08:40:49;100462.25;;;29.13;51.68
58769;BME280;44536;47.474;19.056;2022-08-24T08:43:59;100466.19;;;29.28;50.30
58769;BME280;44536;47.474;19.056;2022-08-24T08:50:26;100462.53;;;29.11;48.69
58769;BME280;44536;47.474;19.056;2022-08-24T09:03:19;100471.37;;;28.95;49.56
58769;BME280;44536;47.474;19.056;2022-08-24T09:13:36;100470.59;;;27.80;52.82
58769;BME280;44536;47.474;19.056;2022-08-24T09:16:48;100470.91;;;27.90;52.80
58769;BME280;44536;47.474;19.056;2022-08-24T09:26:34;100466.88;;;28.29;50.73
58769;BME280;44536;47.474;19.056;2022-08-24T09:32:53;100458.63;;;29.42;49.87
58769;BME280;44536;47.474;19.056;2022-08-24T09:36:10;100461.34;;;28.77;50.56
58769;BME280;44536;47.474;19.056;2022-08-24T09:57:47;100448.97;;;29.16;48.10
58769;BME280;44536;47.474;19.056;2022-08-24T10:04:35;100436.09;;;28.82;49.38
58769;BME280;44536;47.474;19.056;2022-08-24T10:07:56;100434.09;;;28.47;50.28
58769;BME280;44536;47.474;19.056;2022-08-24T10:18:14;100437.34;;;29.09;49.77
58769;BME280;44536;47.474;19.056;2022-08-24T10:24:43;100440.37;;;27.81;54.58
58769;BME280;44536;47.474;19.056;2022-08-24T10:38:24;100447.19;;;29.33;48.52
58769;BME280;44536;47.474;19.056;2022-08-24T10:53:06;100448.59;;;27.56;55.77
58769;BME280;44536;47.474;19.056;2022-08-24T10:56:16;100453.03;;;27.32;56.45
58769;BME280;44536;47.474;19.056;2022-08-24T11:02:45;100444.41;;;27.11;58.52
58769;BME280;44536;47.474;19.056;2022-08-24T11:05:51;100448.53;;;27.20;57.70
58769;BME280;44536;47.474;19.056;2022-08-24T11:15:32;100442.53;;;27.36;57.57
58769;BME280;44536;47.474;19.056;2022-08-24T11:18:56;100447.47;;;27.21;58.11
58769;BME280;44536;47.474;19.056;2022-08-24T11:22:02;100444.22;;;27.55;58.16
58769;BME280;44536;47.474;19.056;2022-08-24T11:25:16;100447.53;;;27.39;58.07
58769;BME280;44536;47.474;19.056;2022-08-24T11:28:28;100451.28;;;27.99;56.46
58769;BME280;44536;47.474;19.056;2022-08-24T11:34:37;100447.97;;;28.46;53.97
58769;BME280;44536;47.474;19.056;2022-08-24T11:37:41;100453.22;;;28.29;55.12
58769;BME280;44536;47.474;19.056;2022-08-24T11:40:49;100460.22;;;27.70;57.18
58769;BME280;44536;47.474;19.056;2022-08-24T11:44:11;100460.84;;;27.47;58.23
58769;BME280;44536;47.474;19.056;2022-08-24T11:47:26;100458.69;;;27.06;59.14
58769;BME280;44536;47.474;19.056;2022-08-24T11:50:47;100460.16;;;26.77;62.89
58769;BME280;44536;47.474;19.056;2022-08-24T11:57:46;100462.81;;;26.08;70.39
58769;BME280;44536;47.474;19.056;2022-08-24T12:01:00;100461.66;;;25.90;71.78
58769;BME280;44536;47.474;19.056;2022-08-24T12:04:30;100460.72;;;26.10;71.01
58769;BME280;44536;47.474;19.056;2022-08-24T12:08:12;100469.25;;;26.20;70.76
58769;BME280;44536;47.474;19.056;2022-08-24T12:11:36;100468.09;;;27.10;67.21
58769;BME280;44536;47.474;19.056;2022-08-24T12:14:53;100469.28;;;27.64;64.61
58769;BME280;44536;47.474;19.056;2022-08-24T12:18:27;100468.41;;;27.88;63.86
58769;BME280;44536;47.474;19.056;2022-08-24T12:21:33;100467.34;;;28.97;59.75
58769;BME280;44536;47.474;19.056;2022-08-24T12:24:40;100476.22;;;29.58;57.46
58769;BME280;44536;47.474;19.056;2022-08-24T12:27:44;100466.34;;;30.20;54.59
58769;BME280;44536;47.474;19.056;2022-08-24T12:30:47;100471.81;;;30.77;53.54
58769;BME280;44536;47.474;19.056;2022-08-24T12:33:53;100466.97;;;30.96;51.91
58769;BME280;44536;47.474;19.056;2022-08-24T12:40:25;100476.91;;;29.42;56.07
58769;BME280;44536;47.474;19.056;2022-08-24T12:43:41;100478.28;;;28.67;59.44
58769;BME280;44536;47.474;19.056;2022-08-24T12:46:51;100469.81;;;27.73;62.29
58769;BME280;44536;47.474;19.056;2022-08-24T12:50:03;100476.41;;;27.65;62.31
58769;BME280;44536;47.474;19.056;2022-08-24T12:56:30;100473.00;;;26.63;66.57
58769;BME280;44536;47.474;19.056;2022-08-24T12:59:52;100476.53;;;26.26;69.02
58769;BME280;44536;47.474;19.056;2022-08-24T13:03:00;100474.22;;;25.78;70.89
58769;BME280;44536;47.474;19.056;2022-08-24T13:06:07;100469.34;;;24.41;82.62
58769;BME280;44536;47.474;19.056;2022-08-24T13:09:35;100469.81;;;22.86;99.67
58769;BME280;44536;47.474;19.056;2022-08-24T13:19:16;100465.62;;;22.47;100.00
58769;BME280;44536;47.474;19.056;2022-08-24T13:28:47;100473.88;;;22.60;100.00
58769;BME280;44536;47.474;19.056;2022-08-24T13:31:56;100474.34;;;22.64;100.00
58769;BME280;44536;47.474;19.056;2022-08-24T13:45:15;100479.25;;;22.96;100.00
58769;BME280;44536;47.474;19.056;2022-08-24T13:51:51;100484.69;;;23.24;100.00
58769;BME280;44536;47.474;19.056;2022-08-24T13:55:27;100483.94;;;23.09;100.00
58769;BME280;44536;47.474;19.056;2022-08-24T14:05:31;100487.81;;;23.00;100.00
58769;BME280;44536;47.474;19.056;2022-08-24T14:15:24;100485.88;;;22.72;100.00
58769;BME280;44536;47.474;19.056;2022-08-24T14:18:35;100484.75;;;22.67;100.00
58769;BME280;44536;47.474;19.056;2022-08-24T14:21:48;100491.13;;;22.59;100.00
58769;BME280;44536;47.474;19.056;2022-08-24T14:31:23;100482.00;;;22.60;100.00
58769;BME280;44536;47.474;19.056;2022-08-24T14:38:03;100477.16;;;22.56;100.00
58769;BME280;44536;47.474;19.056;2022-08-24T14:41:20;100481.25;;;22.30;100.00
58769;BME280;44536;47.474;19.056;2022-08-24T14:51:57;100477.22;;;22.62;100.00
58769;BME280;44536;47.474;19.056;2022-08-24T14:55:10;100469.81;;;22.50;100.00
58769;BME280;44536;47.474;19.056;2022-08-24T15:01:45;100467.59;;;22.74;100.00
58769;BME280;44536;47.474;19.056;2022-08-24T15:04:51;100464.63;;;22.69;100.00
58769;BME280;44536;47.474;19.056;2022-08-24T15:08:04;100465.91;;;22.73;100.00
58769;BME280;44536;47.474;19.056;2022-08-24T15:11:11;100466.75;;;22.74;100.00
58769;BME280;44536;47.474;19.056;2022-08-24T15:14:40;100476.16;;;22.78;100.00
58769;BME280;44536;47.474;19.056;2022-08-24T15:24:24;100482.25;;;22.65;100.00
58769;BME280;44536;47.474;19.056;2022-08-24T15:27:54;100491.81;;;22.83;100.00
58769;BME280;44536;47.474;19.056;2022-08-24T15:31:02;100483.25;;;22.79;100.00
58769;BME280;44536;47.474;19.056;2022-08-24T15:34:06;100486.31;;;22.97;100.00
58769;BME280;44536;47.474;19.056;2022-08-24T15:37:09;100475.31;;;22.99;100.00
58769;BME280;44536;47.474;19.056;2022-08-24T15:40:30;100482.78;;;23.18;100.00
58769;BME280;44536;47.474;19.056;2022-08-24T15:43:37;100491.63;;;23.33;96.56
58769;BME280;44536;47.474;19.056;2022-08-24T15:46:48;100487.34;;;23.45;94.98
58769;BME280;44536;47.474;19.056;2022-08-24T15:49:56;100485.28;;;23.48;96.37
58769;BME280;44536;47.474;19.056;2022-08-24T15:53:02;100483.31;;;23.63;88.76
58769;BME280;44536;47.474;19.056;2022-08-24T15:56:25;100489.66;;;23.76;92.42
58769;BME280;44536;47.474;19.056;2022-08-24T16:02:32;100484.53;;;23.88;99.34
58769;BME280;44536;47.474;19.056;2022-08-24T16:05:38;100484.34;;;23.96;97.57
58769;BME280;44536;47.474;19.056;2022-08-24T16:12:21;100468.09;;;23.96;95.51
58769;BME280;44536;47.474;19.056;2022-08-24T16:15:24;100465.78;;;23.93;98.66
58769;BME280;44536;47.474;19.056;2022-08-24T16:21:54;100456.91;;;23.65;96.05
58769;BME280;44536;47.474;19.056;2022-08-24T16:25:41;100460.84;;;23.62;98.26
58769;BME280;44536;47.474;19.056;2022-08-24T16:28:50;100460.06;;;23.47;95.69
58769;BME280;44536;47.474;19.056;2022-08-24T16:38:08;100456.12;;;23.50;99.53
58769;BME280;44536;47.474;19.056;2022-08-24T16:41:11;100456.53;;;23.47;100.00
58769;BME280;44536;47.474;19.056;2022-08-24T16:44:14;100446.03;;;23.30;100.00
58769;BME280;44536;47.474;19.056;2022-08-24T16:47:16;100452.47;;;23.29;100.00
58769;BME280;44536;47.474;19.056;2022-08-24T16:50:19;100462.12;;;23.38;99.28
58769;BME280;44536;47.474;19.056;2022-08-24T16:53:23;100466.66;;;23.31;100.00
58769;BME280;44536;47.474;19.056;2022-08-24T16:56:26;100467.44;;;23.25;100.00
58769;BME280;44536;47.474;19.056;2022-08-24T16:59:29;100476.53;;;23.18;100.00
58769;BME280;44536;47.474;19.056;2022-08-24T17:02:33;100469.47;;;22.95;100.00
58769;BME280;44536;47.474;19.056;2022-08-24T17:05:36;100473.97;;;22.88;100.00
58769;BME280;44536;47.474;19.056;2022-08-24T17:08:40;100476.47;;;22.90;100.00
58769;BME280;44536;47.474;19.056;2022-08-24T17:11:42;100478.59;;;22.94;100.00
58769;BME280;44536;47.474;19.056;2022-08-24T17:14:45;100480.13;;;23.03;100.00
58769;BME280;44536;47.474;19.056;2022-08-24T17:17:57;100489.22;;;22.96;100.00
58769;BME280;44536;47.474;19.056;2022-08-24T17:21:02;100483.03;;;23.02;100.00
58769;BME280;44536;47.474;19.056;2022-08-24T17:24:07;100484.13;;;23.07;97.90
58769;BME280;44536;47.474;19.056;2022-08-24T17:27:11;100489.41;;;22.94;100.00
58769;BME280;44536;47.474;19.056;2022-08-24T17:30:14;100494.91;;;22.80;100.00
58769;BME280;44536;47.474;19.056;2022-08-24T17:33:21;100498.81;;;22.77;98.53
58769;BME280;44536;47.474;19.056;2022-08-24T17:36:23;100499.75;;;22.69;100.00
58769;BME280;44536;47.474;19.056;2022-08-24T17:39:26;100512.31;;;22.77;97.44
58769;BME280;44536;47.474;19.056;2022-08-24T17:42:29;100518.50;;;22.71;97.22
58769;BME280;44536;47.474;19.056;2022-08-24T17:45:52;100520.47;;;22.62;97.44
58769;BME280;44536;47.474;19.056;2022-08-24T17:48:55;100520.22;;;22.42;100.00
58769;BME280;44536;47.474;19.056;2022-08-24T17:51:58;100515.81;;;22.35;98.84
58769;BME280;44536;47.474;19.056;2022-08-24T17:55:02;100520.38;;;22.20;97.83
58769;BME280;44536;47.474;19.056;2022-08-24T17:58:04;100526.25;;;22.08;100.00
58769;BME280;44536;47.474;19.056;2022-08-24T18:01:07;100528.31;;;22.06;100.00
58769;BME280;44536;47.474;19.056;2022-08-24T18:04:09;100530.72;;;22.01;100.00
58769;BME280;44536;47.474;19.056;2022-08-24T18:07:14;100534.50;;;21.92;99.52
58769;BME280;44536;47.474;19.056;2022-08-24T18:10:38;100527.72;;;21.96;99.49
58769;BME280;44536;47.474;19.056;2022-08-24T18:13:41;100532.37;;;21.88;99.77
58769;BME280;44536;47.474;19.056;2022-08-24T18:16:43;100537.88;;;21.94;97.21
58769;BME280;44536;47.474;19.056;2022-08-24T18:19:58;100546.34;;;21.91;97.58
58769;BME280;44536;47.474;19.056;2022-08-24T18:23:00;100544.38;;;21.85;97.80
58769;BME280;44536;47.474;19.056;2022-08-24T18:26:03;100542.63;;;21.77;100.00
58769;BME280;44536;47.474;19.056;2022-08-24T18:29:10;100558.87;;;21.55;100.00
58769;BME280;44536;47.474;19.056;2022-08-24T18:32:15;100548.66;;;21.65;98.75
58769;BME280;44536;47.474;19.056;2022-08-24T18:35:18;100557.28;;;21.60;100.00
58769;BME280;44536;47.474;19.056;2022-08-24T18:38:20;100560.62;;;21.47;100.00
58769;BME280;44536;47.474;19.056;2022-08-24T18:41:26;100558.87;;;21.32;100.00
58769;BME280;44536;47.474;19.056;2022-08-24T18:44:32;100552.09;;;21.21;100.00
58769;BME280;44536;47.474;19.056;2022-08-24T18:47:37;100562.50;;;21.24;100.00
58769;BME280;44536;47.474;19.056;2022-08-24T18:50:39;100559.63;;;21.26;100.00
58769;BME280;44536;47.474;19.056;2022-08-24T18:53:43;100558.84;;;21.17;100.00
58769;BME280;44536;47.474;19.056;2022-08-24T18:56:45;100561.84;;;21.22;100.00
58769;BME280;44536;47.474;19.056;2022-08-24T18:59:48;100565.50;;;21.29;100.00
58769;BME280;44536;47.474;19.056;2022-08-24T19:02:50;100568.59;;;21.18;100.00
58769;BME280;44536;47.474;19.056;2022-08-24T19:05:53;100569.25;;;21.20;100.00
58769;BME280;44536;47.474;19.056;2022-08-24T19:08:56;100563.91;;;21.12;100.00
58769;BME280;44536;47.474;19.056;2022-08-24T19:11:59;100571.03;;;21.05;100.00